sensor_id;sensor_type;location;lat;lon;timestamp;P1;durP1;ratioP1;P2;durP2;ratioP2
49039;SDS011;36811;49.732;13.402;2022-09-09T00:03:43;9.45;;;5.00;;
49039;SDS011;36811;49.732;13.402;2022-09-09T00:06:20;9.50;;;5.25;;
49039;SDS011;36811;49.732;13.402;2022-09-09T00:09:15;8.65;;;4.53;;
49039;SDS011;36811;49.732;13.402;2022-09-09T00:11:46;8.98;;;5.10;;
49039;SDS011;36811;49.732;13.402;2022-09-09T00:14:40;9.88;;;4.50;;
49039;SDS011;36811;49.732;13.402;2022-09-09T00:17:22;7.32;;;4.57;;
49039;SDS011;36811;49.732;13.402;2022-09-09T00:22:28;10.70;;;4.85;;
49039;SDS011;36811;49.732;13.402;2022-09-09T00:25:02;10.57;;;4.45;;
49039;SDS011;36811;49.732;13.402;2022-09-09T00:27:43;7.97;;;4.63;;
49039;SDS011;36811;49.732;13.402;2022-09-09T00:30:22;9.02;;;4.40;;
49039;SDS011;36811;49.732;13.402;2022-09-09T00:32:54;5.72;;;4.20;;
49039;SDS011;36811;49.732;13.402;2022-09-09T00:37:56;9.40;;;4.60;;
49039;SDS011;36811;49.732;13.402;2022-09-09T00:40:33;10.27;;;4.40;;
49039;SDS011;36811;49.732;13.402;2022-09-09T00:48:18;10.95;;;4.68;;
49039;SDS011;36811;49.732;13.402;2022-09-09T00:53:33;9.98;;;4.43;;
49039;SDS011;36811;49.732;13.402;2022-09-09T00:56:21;7.60;;;4.60;;
49039;SDS011;36811;49.732;13.402;2022-09-09T00:58:59;9.25;;;4.68;;
49039;SDS011;36811;49.732;13.402;2022-09-09T01:01:37;6.60;;;4.20;;
49039;SDS011;36811;49.732;13.402;2022-09-09T01:04:07;10.98;;;4.43;;
49039;SDS011;36811;49.732;13.402;2022-09-09T01:06:41;9.63;;;4.50;;
49039;SDS011;36811;49.732;13.402;2022-09-09T01:12:14;15.93;;;4.60;;
49039;SDS011;36811;49.732;13.402;2022-09-09T01:14:43;9.40;;;4.47;;
49039;SDS011;36811;49.732;13.402;2022-09-09T01:17:21;8.83;;;4.43;;
49039;SDS011;36811;49.732;13.402;2022-09-09T01:19:57;7.93;;;5.03;;
49039;SDS011;36811;49.732;13.402;2022-09-09T01:27:51;10.57;;;4.80;;
49039;SDS011;36811;49.732;13.402;2022-09-09T01:30:21;6.97;;;4.20;;
49039;SDS011;36811;49.732;13.402;2022-09-09T01:32:53;6.82;;;4.55;;
49039;SDS011;36811;49.732;13.402;2022-09-09T01:38:04;6.47;;;4.10;;
49039;SDS011;36811;49.732;13.402;2022-09-09T01:40:30;6.35;;;4.35;;
49039;SDS011;36811;49.732;13.402;2022-09-09T01:42:57;8.15;;;4.20;;
49039;SDS011;36811;49.732;13.402;2022-09-09T01:45:23;7.50;;;4.35;;
49039;SDS011;36811;49.732;13.402;2022-09-09T01:47:50;7.20;;;4.82;;
49039;SDS011;36811;49.732;13.402;2022-09-09T01:50:19;9.48;;;5.03;;
49039;SDS011;36811;49.732;13.402;2022-09-09T01:52:46;6.88;;;4.07;;
49039;SDS011;36811;49.732;13.402;2022-09-09T01:55:19;8.10;;;5.20;;
49039;SDS011;36811;49.732;13.402;2022-09-09T02:03:53;6.38;;;4.97;;
49039;SDS011;36811;49.732;13.402;2022-09-09T02:09:06;7.55;;;5.40;;
49039;SDS011;36811;49.732;13.402;2022-09-09T02:11:36;9.57;;;5.32;;
49039;SDS011;36811;49.732;13.402;2022-09-09T02:14:08;12.60;;;6.00;;
49039;SDS011;36811;49.732;13.402;2022-09-09T02:16:40;13.18;;;6.50;;
49039;SDS011;36811;49.732;13.402;2022-09-09T02:19:18;9.77;;;6.50;;
49039;SDS011;36811;49.732;13.402;2022-09-09T02:21:51;8.45;;;4.85;;
49039;SDS011;36811;49.732;13.402;2022-09-09T02:24:20;9.65;;;5.80;;
49039;SDS011;36811;49.732;13.402;2022-09-09T02:26:48;8.98;;;5.10;;
49039;SDS011;36811;49.732;13.402;2022-09-09T02:29:18;10.00;;;5.63;;
49039;SDS011;36811;49.732;13.402;2022-09-09T02:31:49;7.35;;;5.10;;
49039;SDS011;36811;49.732;13.402;2022-09-09T02:34:17;7.05;;;5.40;;
49039;SDS011;36811;49.732;13.402;2022-09-09T02:36:45;10.35;;;6.28;;
49039;SDS011;36811;49.732;13.402;2022-09-09T02:39:13;11.68;;;6.72;;
49039;SDS011;36811;49.732;13.402;2022-09-09T02:41:40;8.63;;;5.25;;
49039;SDS011;36811;49.732;13.402;2022-09-09T02:44:14;11.10;;;6.47;;
49039;SDS011;36811;49.732;13.402;2022-09-09T02:46:54;11.85;;;6.22;;
49039;SDS011;36811;49.732;13.402;2022-09-09T02:52:00;12.10;;;7.18;;
49039;SDS011;36811;49.732;13.402;2022-09-09T02:54:32;12.90;;;6.75;;
49039;SDS011;36811;49.732;13.402;2022-09-09T02:59:38;18.27;;;7.50;;
49039;SDS011;36811;49.732;13.402;2022-09-09T03:02:04;9.07;;;7.00;;
49039;SDS011;36811;49.732;13.402;2022-09-09T03:04:30;12.07;;;8.52;;
49039;SDS011;36811;49.732;13.402;2022-09-09T03:06:57;10.65;;;5.68;;
49039;SDS011;36811;49.732;13.402;2022-09-09T03:09:23;14.68;;;8.13;;
49039;SDS011;36811;49.732;13.402;2022-09-09T03:11:51;15.25;;;7.20;;
49039;SDS011;36811;49.732;13.402;2022-09-09T03:14:17;18.25;;;8.00;;
49039;SDS011;36811;49.732;13.402;2022-09-09T03:16:46;30.80;;;10.70;;
49039;SDS011;36811;49.732;13.402;2022-09-09T03:19:13;19.25;;;10.32;;
49039;SDS011;36811;49.732;13.402;2022-09-09T03:21:39;17.40;;;9.50;;
49039;SDS011;36811;49.732;13.402;2022-09-09T03:24:04;21.33;;;10.32;;
49039;SDS011;36811;49.732;13.402;2022-09-09T03:26:31;15.05;;;8.90;;
49039;SDS011;36811;49.732;13.402;2022-09-09T03:28:58;15.63;;;8.23;;
49039;SDS011;36811;49.732;13.402;2022-09-09T03:31:25;12.40;;;8.70;;
49039;SDS011;36811;49.732;13.402;2022-09-09T03:33:56;13.27;;;8.55;;
49039;SDS011;36811;49.732;13.402;2022-09-09T03:36:24;16.80;;;9.07;;
49039;SDS011;36811;49.732;13.402;2022-09-09T03:38:52;11.52;;;7.68;;
49039;SDS011;36811;49.732;13.402;2022-09-09T03:41:19;10.75;;;7.13;;
49039;SDS011;36811;49.732;13.402;2022-09-09T03:43:52;10.52;;;6.53;;
49039;SDS011;36811;49.732;13.402;2022-09-09T03:46:19;12.50;;;7.10;;
49039;SDS011;36811;49.732;13.402;2022-09-09T03:48:46;10.15;;;6.53;;
49039;SDS011;36811;49.732;13.402;2022-09-09T03:51:12;10.20;;;7.43;;
49039;SDS011;36811;49.732;13.402;2022-09-09T03:53:38;10.15;;;5.90;;
49039;SDS011;36811;49.732;13.402;2022-09-09T03:56:05;9.90;;;6.15;;
49039;SDS011;36811;49.732;13.402;2022-09-09T03:58:33;11.00;;;6.32;;
49039;SDS011;36811;49.732;13.402;2022-09-09T04:01:01;12.73;;;7.78;;
49039;SDS011;36811;49.732;13.402;2022-09-09T04:03:33;9.70;;;6.00;;
49039;SDS011;36811;49.732;13.402;2022-09-09T04:06:00;8.65;;;5.80;;
49039;SDS011;36811;49.732;13.402;2022-09-09T04:08:29;11.65;;;6.60;;
49039;SDS011;36811;49.732;13.402;2022-09-09T04:10:56;10.88;;;7.95;;
49039;SDS011;36811;49.732;13.402;2022-09-09T04:13:23;11.50;;;6.15;;
49039;SDS011;36811;49.732;13.402;2022-09-09T04:15:53;9.45;;;6.18;;
49039;SDS011;36811;49.732;13.402;2022-09-09T04:18:22;8.40;;;7.10;;
49039;SDS011;36811;49.732;13.402;2022-09-09T04:20:49;15.00;;;7.75;;
49039;SDS011;36811;49.732;13.402;2022-09-09T04:23:16;8.43;;;6.43;;
49039;SDS011;36811;49.732;13.402;2022-09-09T04:25:46;11.85;;;5.35;;
49039;SDS011;36811;49.732;13.402;2022-09-09T04:28:14;21.05;;;12.35;;
49039;SDS011;36811;49.732;13.402;2022-09-09T04:30:42;12.73;;;7.45;;
49039;SDS011;36811;49.732;13.402;2022-09-09T04:33:09;19.20;;;9.40;;
49039;SDS011;36811;49.732;13.402;2022-09-09T04:35:35;11.10;;;5.97;;
49039;SDS011;36811;49.732;13.402;2022-09-09T04:38:02;12.88;;;7.65;;
49039;SDS011;36811;49.732;13.402;2022-09-09T04:40:29;17.52;;;7.60;;
49039;SDS011;36811;49.732;13.402;2022-09-09T04:42:59;12.25;;;6.13;;
49039;SDS011;36811;49.732;13.402;2022-09-09T04:45:25;11.20;;;5.93;;
49039;SDS011;36811;49.732;13.402;2022-09-09T04:47:51;13.32;;;5.22;;
49039;SDS011;36811;49.732;13.402;2022-09-09T04:50:18;13.63;;;5.45;;
49039;SDS011;36811;49.732;13.402;2022-09-09T04:52:44;11.88;;;5.68;;
49039;SDS011;36811;49.732;13.402;2022-09-09T04:55:10;23.52;;;5.97;;
49039;SDS011;36811;49.732;13.402;2022-09-09T04:57:38;15.23;;;6.18;;
49039;SDS011;36811;49.732;13.402;2022-09-09T05:00:04;16.90;;;7.25;;
49039;SDS011;36811;49.732;13.402;2022-09-09T05:02:31;25.05;;;7.40;;
49039;SDS011;36811;49.732;13.402;2022-09-09T05:04:57;14.02;;;6.38;;
49039;SDS011;36811;49.732;13.402;2022-09-09T05:07:26;17.15;;;6.43;;
49039;SDS011;36811;49.732;13.402;2022-09-09T05:09:52;9.45;;;5.53;;
49039;SDS011;36811;49.732;13.402;2022-09-09T05:12:19;18.05;;;5.80;;
49039;SDS011;36811;49.732;13.402;2022-09-09T05:14:44;18.08;;;6.13;;
49039;SDS011;36811;49.732;13.402;2022-09-09T05:17:10;13.70;;;5.57;;
49039;SDS011;36811;49.732;13.402;2022-09-09T05:19:36;10.07;;;5.30;;
49039;SDS011;36811;49.732;13.402;2022-09-09T05:22:02;16.35;;;5.55;;
49039;SDS011;36811;49.732;13.402;2022-09-09T05:24:28;11.10;;;4.80;;
49039;SDS011;36811;49.732;13.402;2022-09-09T05:26:54;11.30;;;4.63;;
49039;SDS011;36811;49.732;13.402;2022-09-09T05:29:23;9.48;;;5.20;;
49039;SDS011;36811;49.732;13.402;2022-09-09T05:31:48;19.17;;;11.15;;
49039;SDS011;36811;49.732;13.402;2022-09-09T05:34:14;8.57;;;4.97;;
49039;SDS011;36811;49.732;13.402;2022-09-09T05:36:40;12.73;;;6.57;;
49039;SDS011;36811;49.732;13.402;2022-09-09T05:39:05;10.23;;;5.15;;
49039;SDS011;36811;49.732;13.402;2022-09-09T05:41:31;25.52;;;19.02;;
49039;SDS011;36811;49.732;13.402;2022-09-09T05:43:58;31.10;;;24.85;;
49039;SDS011;36811;49.732;13.402;2022-09-09T05:46:26;40.42;;;26.55;;
49039;SDS011;36811;49.732;13.402;2022-09-09T05:48:52;29.80;;;23.80;;
49039;SDS011;36811;49.732;13.402;2022-09-09T05:51:20;25.00;;;18.15;;
49039;SDS011;36811;49.732;13.402;2022-09-09T05:53:47;28.65;;;16.27;;
49039;SDS011;36811;49.732;13.402;2022-09-09T05:56:15;21.27;;;9.75;;
49039;SDS011;36811;49.732;13.402;2022-09-09T05:58:43;20.00;;;9.10;;
49039;SDS011;36811;49.732;13.402;2022-09-09T06:01:19;12.10;;;7.70;;
49039;SDS011;36811;49.732;13.402;2022-09-09T06:03:47;15.10;;;7.22;;
49039;SDS011;36811;49.732;13.402;2022-09-09T06:06:15;9.40;;;6.45;;
49039;SDS011;36811;49.732;13.402;2022-09-09T06:08:49;16.08;;;7.20;;
49039;SDS011;36811;49.732;13.402;2022-09-09T06:13:47;13.90;;;6.40;;
49039;SDS011;36811;49.732;13.402;2022-09-09T06:16:16;14.13;;;6.50;;
49039;SDS011;36811;49.732;13.402;2022-09-09T06:18:44;13.75;;;5.88;;
49039;SDS011;36811;49.732;13.402;2022-09-09T06:21:21;14.20;;;5.25;;
49039;SDS011;36811;49.732;13.402;2022-09-09T06:23:51;14.95;;;5.35;;
49039;SDS011;36811;49.732;13.402;2022-09-09T06:26:19;18.45;;;5.63;;
49039;SDS011;36811;49.732;13.402;2022-09-09T06:28:50;12.63;;;5.53;;
49039;SDS011;36811;49.732;13.402;2022-09-09T06:31:19;11.88;;;4.88;;
49039;SDS011;36811;49.732;13.402;2022-09-09T06:33:47;14.25;;;4.80;;
49039;SDS011;36811;49.732;13.402;2022-09-09T06:36:15;10.70;;;4.80;;
49039;SDS011;36811;49.732;13.402;2022-09-09T06:38:43;11.65;;;4.65;;
49039;SDS011;36811;49.732;13.402;2022-09-09T06:41:10;12.68;;;4.18;;
49039;SDS011;36811;49.732;13.402;2022-09-09T06:43:38;12.75;;;5.03;;
49039;SDS011;36811;49.732;13.402;2022-09-09T06:46:26;10.55;;;4.50;;
49039;SDS011;36811;49.732;13.402;2022-09-09T06:48:55;12.93;;;4.20;;
49039;SDS011;36811;49.732;13.402;2022-09-09T06:51:23;10.00;;;4.70;;
49039;SDS011;36811;49.732;13.402;2022-09-09T06:53:52;10.05;;;4.50;;
49039;SDS011;36811;49.732;13.402;2022-09-09T06:56:23;15.52;;;5.10;;
49039;SDS011;36811;49.732;13.402;2022-09-09T06:58:53;11.13;;;5.00;;
49039;SDS011;36811;49.732;13.402;2022-09-09T07:01:23;13.73;;;5.22;;
49039;SDS011;36811;49.732;13.402;2022-09-09T07:03:54;12.10;;;5.30;;
49039;SDS011;36811;49.732;13.402;2022-09-09T07:06:24;16.23;;;5.20;;
49039;SDS011;36811;49.732;13.402;2022-09-09T07:08:56;11.20;;;5.30;;
49039;SDS011;36811;49.732;13.402;2022-09-09T07:11:25;9.18;;;4.55;;
49039;SDS011;36811;49.732;13.402;2022-09-09T07:13:53;10.63;;;4.82;;
49039;SDS011;36811;49.732;13.402;2022-09-09T07:16:22;10.95;;;4.47;;
49039;SDS011;36811;49.732;13.402;2022-09-09T07:18:50;10.73;;;5.07;;
49039;SDS011;36811;49.732;13.402;2022-09-09T07:21:17;14.93;;;4.55;;
49039;SDS011;36811;49.732;13.402;2022-09-09T07:23:44;10.65;;;4.80;;
49039;SDS011;36811;49.732;13.402;2022-09-09T07:26:11;14.15;;;4.28;;
49039;SDS011;36811;49.732;13.402;2022-09-09T07:28:41;14.13;;;4.20;;
49039;SDS011;36811;49.732;13.402;2022-09-09T07:31:17;12.38;;;4.30;;
49039;SDS011;36811;49.732;13.402;2022-09-09T07:33:46;11.77;;;4.45;;
49039;SDS011;36811;49.732;13.402;2022-09-09T07:36:17;11.95;;;4.30;;
49039;SDS011;36811;49.732;13.402;2022-09-09T07:38:49;12.20;;;4.50;;
49039;SDS011;36811;49.732;13.402;2022-09-09T07:41:31;9.57;;;4.03;;
49039;SDS011;36811;49.732;13.402;2022-09-09T07:44:08;12.23;;;4.47;;
49039;SDS011;36811;49.732;13.402;2022-09-09T07:46:38;12.85;;;4.03;;
49039;SDS011;36811;49.732;13.402;2022-09-09T07:49:04;10.73;;;3.47;;
49039;SDS011;36811;49.732;13.402;2022-09-09T07:51:32;6.75;;;3.67;;
49039;SDS011;36811;49.732;13.402;2022-09-09T07:54:01;11.98;;;4.40;;
49039;SDS011;36811;49.732;13.402;2022-09-09T07:56:29;6.78;;;2.83;;
49039;SDS011;36811;49.732;13.402;2022-09-09T07:58:57;5.35;;;2.95;;
49039;SDS011;36811;49.732;13.402;2022-09-09T08:01:28;8.95;;;3.42;;
49039;SDS011;36811;49.732;13.402;2022-09-09T08:04:05;11.43;;;2.58;;
49039;SDS011;36811;49.732;13.402;2022-09-09T08:06:39;3.35;;;2.05;;
49039;SDS011;36811;49.732;13.402;2022-09-09T08:09:07;6.45;;;2.22;;
49039;SDS011;36811;49.732;13.402;2022-09-09T08:11:34;6.75;;;2.10;;
49039;SDS011;36811;49.732;13.402;2022-09-09T08:14:02;7.55;;;1.50;;
49039;SDS011;36811;49.732;13.402;2022-09-09T08:16:29;2.67;;;1.50;;
49039;SDS011;36811;49.732;13.402;2022-09-09T08:19:02;4.28;;;1.52;;
49039;SDS011;36811;49.732;13.402;2022-09-09T08:21:30;5.90;;;1.30;;
49039;SDS011;36811;49.732;13.402;2022-09-09T08:23:59;5.32;;;1.92;;
49039;SDS011;36811;49.732;13.402;2022-09-09T08:26:28;5.13;;;1.80;;
49039;SDS011;36811;49.732;13.402;2022-09-09T08:28:56;4.22;;;1.63;;
49039;SDS011;36811;49.732;13.402;2022-09-09T08:31:27;8.32;;;2.08;;
49039;SDS011;36811;49.732;13.402;2022-09-09T08:33:56;8.85;;;3.25;;
49039;SDS011;36811;49.732;13.402;2022-09-09T08:36:25;3.60;;;1.20;;
49039;SDS011;36811;49.732;13.402;2022-09-09T08:38:53;8.23;;;1.60;;
49039;SDS011;36811;49.732;13.402;2022-09-09T08:44:22;8.35;;;1.65;;
49039;SDS011;36811;49.732;13.402;2022-09-09T08:52:16;4.90;;;1.55;;
49039;SDS011;36811;49.732;13.402;2022-09-09T08:54:55;4.07;;;2.47;;
49039;SDS011;36811;49.732;13.402;2022-09-09T08:57:27;4.28;;;1.88;;
49039;SDS011;36811;49.732;13.402;2022-09-09T08:59:56;4.72;;;1.27;;
49039;SDS011;36811;49.732;13.402;2022-09-09T09:07:46;6.80;;;1.60;;
49039;SDS011;36811;49.732;13.402;2022-09-09T09:10:18;8.32;;;1.98;;
49039;SDS011;36811;49.732;13.402;2022-09-09T09:15:24;4.85;;;1.42;;
49039;SDS011;36811;49.732;13.402;2022-09-09T09:17:54;5.70;;;1.75;;
49039;SDS011;36811;49.732;13.402;2022-09-09T09:20:23;8.23;;;2.13;;
49039;SDS011;36811;49.732;13.402;2022-09-09T09:23:13;6.13;;;2.38;;
49039;SDS011;36811;49.732;13.402;2022-09-09T09:25:46;5.43;;;2.20;;
49039;SDS011;36811;49.732;13.402;2022-09-09T09:28:15;2.70;;;1.60;;
49039;SDS011;36811;49.732;13.402;2022-09-09T09:36:12;5.93;;;2.35;;
49039;SDS011;36811;49.732;13.402;2022-09-09T09:38:50;7.72;;;2.42;;
49039;SDS011;36811;49.732;13.402;2022-09-09T09:41:28;5.75;;;1.77;;
49039;SDS011;36811;49.732;13.402;2022-09-09T09:44:03;5.45;;;1.67;;
49039;SDS011;36811;49.732;13.402;2022-09-09T09:46:29;5.85;;;2.22;;
49039;SDS011;36811;49.732;13.402;2022-09-09T09:48:57;3.47;;;1.42;;
49039;SDS011;36811;49.732;13.402;2022-09-09T09:51:31;6.78;;;2.13;;
49039;SDS011;36811;49.732;13.402;2022-09-09T09:54:07;8.35;;;2.20;;
49039;SDS011;36811;49.732;13.402;2022-09-09T09:56:44;4.90;;;1.80;;
49039;SDS011;36811;49.732;13.402;2022-09-09T09:59:21;9.55;;;1.75;;
49039;SDS011;36811;49.732;13.402;2022-09-09T10:01:53;6.13;;;1.90;;
49039;SDS011;36811;49.732;13.402;2022-09-09T10:04:20;5.55;;;2.22;;
49039;SDS011;36811;49.732;13.402;2022-09-09T10:06:49;5.38;;;1.95;;
49039;SDS011;36811;49.732;13.402;2022-09-09T10:09:20;7.53;;;2.47;;
49039;SDS011;36811;49.732;13.402;2022-09-09T10:14:40;8.63;;;1.80;;
49039;SDS011;36811;49.732;13.402;2022-09-09T10:20:13;5.82;;;2.10;;
49039;SDS011;36811;49.732;13.402;2022-09-09T10:37:04;5.53;;;2.63;;
49039;SDS011;36811;49.732;13.402;2022-09-09T10:39:48;6.10;;;2.30;;
49039;SDS011;36811;49.732;13.402;2022-09-09T10:42:24;7.05;;;2.40;;
49039;SDS011;36811;49.732;13.402;2022-09-09T10:45:02;11.10;;;2.83;;
49039;SDS011;36811;49.732;13.402;2022-09-09T10:50:49;4.20;;;2.30;;
49039;SDS011;36811;49.732;13.402;2022-09-09T10:56:07;9.27;;;2.15;;
49039;SDS011;36811;49.732;13.402;2022-09-09T11:03:52;6.13;;;1.80;;
49039;SDS011;36811;49.732;13.402;2022-09-09T11:06:28;5.72;;;2.13;;
49039;SDS011;36811;49.732;13.402;2022-09-09T11:08:59;6.40;;;1.83;;
49039;SDS011;36811;49.732;13.402;2022-09-09T11:11:33;6.95;;;2.45;;
49039;SDS011;36811;49.732;13.402;2022-09-09T11:22:12;4.55;;;1.70;;
49039;SDS011;36811;49.732;13.402;2022-09-09T11:24:41;5.88;;;2.28;;
49039;SDS011;36811;49.732;13.402;2022-09-09T11:27:21;6.95;;;1.98;;
49039;SDS011;36811;49.732;13.402;2022-09-09T11:30:05;7.05;;;2.50;;
49039;SDS011;36811;49.732;13.402;2022-09-09T11:40:40;12.88;;;2.70;;
49039;SDS011;36811;49.732;13.402;2022-09-09T11:43:18;4.68;;;1.77;;
49039;SDS011;36811;49.732;13.402;2022-09-09T11:45:54;6.72;;;1.80;;
49039;SDS011;36811;49.732;13.402;2022-09-09T11:48:36;7.05;;;2.53;;
49039;SDS011;36811;49.732;13.402;2022-09-09T11:51:25;5.85;;;2.15;;
49039;SDS011;36811;49.732;13.402;2022-09-09T11:53:57;8.25;;;2.58;;
49039;SDS011;36811;49.732;13.402;2022-09-09T11:56:31;6.80;;;2.38;;
49039;SDS011;36811;49.732;13.402;2022-09-09T11:59:03;5.93;;;2.03;;
49039;SDS011;36811;49.732;13.402;2022-09-09T12:01:34;5.18;;;2.42;;
49039;SDS011;36811;49.732;13.402;2022-09-09T12:14:43;7.03;;;1.77;;
49039;SDS011;36811;49.732;13.402;2022-09-09T12:17:22;6.75;;;2.13;;
49039;SDS011;36811;49.732;13.402;2022-09-09T12:25:58;3.80;;;1.80;;
49039;SDS011;36811;49.732;13.402;2022-09-09T12:31:24;6.15;;;2.60;;
49039;SDS011;36811;49.732;13.402;2022-09-09T12:36:53;2.15;;;1.30;;
49039;SDS011;36811;49.732;13.402;2022-09-09T12:39:36;5.13;;;1.90;;
49039;SDS011;36811;49.732;13.402;2022-09-09T12:42:18;11.23;;;3.83;;
49039;SDS011;36811;49.732;13.402;2022-09-09T12:47:18;3.20;;;1.55;;
49039;SDS011;36811;49.732;13.402;2022-09-09T12:49:50;2.70;;;1.25;;
49039;SDS011;36811;49.732;13.402;2022-09-09T12:52:30;6.43;;;1.75;;
49039;SDS011;36811;49.732;13.402;2022-09-09T12:55:04;6.28;;;1.55;;
49039;SDS011;36811;49.732;13.402;2022-09-09T12:57:36;4.00;;;1.05;;
49039;SDS011;36811;49.732;13.402;2022-09-09T13:00:05;11.00;;;7.47;;
49039;SDS011;36811;49.732;13.402;2022-09-09T13:02:44;4.22;;;1.70;;
49039;SDS011;36811;49.732;13.402;2022-09-09T13:05:18;5.38;;;2.03;;
49039;SDS011;36811;49.732;13.402;2022-09-09T13:07:46;4.32;;;1.48;;
49039;SDS011;36811;49.732;13.402;2022-09-09T13:10:13;1.63;;;0.98;;
49039;SDS011;36811;49.732;13.402;2022-09-09T13:12:44;2.65;;;1.20;;
49039;SDS011;36811;49.732;13.402;2022-09-09T13:15:15;3.65;;;1.23;;
49039;SDS011;36811;49.732;13.402;2022-09-09T13:17:49;5.43;;;1.25;;
49039;SDS011;36811;49.732;13.402;2022-09-09T13:20:20;4.40;;;1.45;;
49039;SDS011;36811;49.732;13.402;2022-09-09T13:22:48;3.80;;;1.40;;
49039;SDS011;36811;49.732;13.402;2022-09-09T13:25:25;3.60;;;1.67;;
49039;SDS011;36811;49.732;13.402;2022-09-09T13:27:57;3.83;;;1.17;;
49039;SDS011;36811;49.732;13.402;2022-09-09T13:35:46;4.13;;;1.40;;
49039;SDS011;36811;49.732;13.402;2022-09-09T13:38:18;3.03;;;0.90;;
49039;SDS011;36811;49.732;13.402;2022-09-09T13:40:54;2.17;;;1.08;;
49039;SDS011;36811;49.732;13.402;2022-09-09T13:43:27;3.55;;;1.30;;
49039;SDS011;36811;49.732;13.402;2022-09-09T13:45:54;4.15;;;1.45;;
49039;SDS011;36811;49.732;13.402;2022-09-09T13:48:28;3.80;;;1.60;;
49039;SDS011;36811;49.732;13.402;2022-09-09T13:51:00;2.13;;;1.08;;
49039;SDS011;36811;49.732;13.402;2022-09-09T13:53:30;5.68;;;1.35;;
49039;SDS011;36811;49.732;13.402;2022-09-09T13:55:57;3.97;;;1.45;;
49039;SDS011;36811;49.732;13.402;2022-09-09T13:58:23;2.47;;;1.15;;
49039;SDS011;36811;49.732;13.402;2022-09-09T14:00:51;6.70;;;1.88;;
49039;SDS011;36811;49.732;13.402;2022-09-09T14:03:18;2.10;;;0.95;;
49039;SDS011;36811;49.732;13.402;2022-09-09T14:05:46;3.00;;;1.30;;
49039;SDS011;36811;49.732;13.402;2022-09-09T14:08:15;4.18;;;1.50;;
49039;SDS011;36811;49.732;13.402;2022-09-09T14:10:47;3.75;;;1.55;;
49039;SDS011;36811;49.732;13.402;2022-09-09T14:13:13;2.88;;;1.13;;
49039;SDS011;36811;49.732;13.402;2022-09-09T14:15:40;3.03;;;1.13;;
49039;SDS011;36811;49.732;13.402;2022-09-09T14:18:05;1.65;;;0.80;;
49039;SDS011;36811;49.732;13.402;2022-09-09T14:20:31;1.77;;;0.85;;
49039;SDS011;36811;49.732;13.402;2022-09-09T14:22:57;2.97;;;1.00;;
49039;SDS011;36811;49.732;13.402;2022-09-09T14:25:23;2.08;;;1.20;;
49039;SDS011;36811;49.732;13.402;2022-09-09T14:27:49;7.85;;;1.73;;
49039;SDS011;36811;49.732;13.402;2022-09-09T14:30:16;3.25;;;1.30;;
49039;SDS011;36811;49.732;13.402;2022-09-09T14:32:42;2.45;;;1.08;;
49039;SDS011;36811;49.732;13.402;2022-09-09T14:35:08;4.50;;;1.27;;
49039;SDS011;36811;49.732;13.402;2022-09-09T14:37:34;6.32;;;1.45;;
49039;SDS011;36811;49.732;13.402;2022-09-09T14:39:59;2.92;;;1.40;;
49039;SDS011;36811;49.732;13.402;2022-09-09T14:42:25;5.55;;;1.50;;
49039;SDS011;36811;49.732;13.402;2022-09-09T14:44:52;2.80;;;0.85;;
49039;SDS011;36811;49.732;13.402;2022-09-09T14:47:17;3.63;;;1.30;;
49039;SDS011;36811;49.732;13.402;2022-09-09T14:49:43;4.90;;;1.50;;
49039;SDS011;36811;49.732;13.402;2022-09-09T14:52:10;16.90;;;2.53;;
49039;SDS011;36811;49.732;13.402;2022-09-09T14:54:36;6.20;;;1.40;;
49039;SDS011;36811;49.732;13.402;2022-09-09T14:57:02;3.25;;;1.05;;
49039;SDS011;36811;49.732;13.402;2022-09-09T14:59:28;3.45;;;1.33;;
49039;SDS011;36811;49.732;13.402;2022-09-09T15:01:53;5.03;;;1.10;;
49039;SDS011;36811;49.732;13.402;2022-09-09T15:04:19;4.38;;;1.20;;
49039;SDS011;36811;49.732;13.402;2022-09-09T15:06:45;2.20;;;1.08;;
49039;SDS011;36811;49.732;13.402;2022-09-09T15:09:13;3.10;;;1.85;;
49039;SDS011;36811;49.732;13.402;2022-09-09T15:11:40;8.23;;;2.63;;
49039;SDS011;36811;49.732;13.402;2022-09-09T15:14:06;3.78;;;1.25;;
49039;SDS011;36811;49.732;13.402;2022-09-09T15:16:34;4.68;;;1.52;;
49039;SDS011;36811;49.732;13.402;2022-09-09T15:19:01;2.45;;;1.05;;
49039;SDS011;36811;49.732;13.402;2022-09-09T15:21:29;2.33;;;1.08;;
49039;SDS011;36811;49.732;13.402;2022-09-09T15:23:57;2.95;;;0.90;;
49039;SDS011;36811;49.732;13.402;2022-09-09T15:26:24;3.22;;;0.95;;
49039;SDS011;36811;49.732;13.402;2022-09-09T15:28:51;1.52;;;0.93;;
49039;SDS011;36811;49.732;13.402;2022-09-09T15:31:18;2.25;;;0.95;;
49039;SDS011;36811;49.732;13.402;2022-09-09T15:36:17;3.53;;;1.17;;
49039;SDS011;36811;49.732;13.402;2022-09-09T15:38:43;3.08;;;1.30;;
49039;SDS011;36811;49.732;13.402;2022-09-09T15:41:09;3.60;;;1.70;;
49039;SDS011;36811;49.732;13.402;2022-09-09T15:43:36;3.05;;;1.35;;
49039;SDS011;36811;49.732;13.402;2022-09-09T15:46:36;1.75;;;1.00;;
49039;SDS011;36811;49.732;13.402;2022-09-09T15:51:41;4.22;;;1.65;;
49039;SDS011;36811;49.732;13.402;2022-09-09T15:54:12;1.95;;;1.10;;
49039;SDS011;36811;49.732;13.402;2022-09-09T15:56:43;2.88;;;1.35;;
49039;SDS011;36811;49.732;13.402;2022-09-09T15:59:10;5.35;;;1.33;;
49039;SDS011;36811;49.732;13.402;2022-09-09T16:01:36;3.63;;;1.58;;
49039;SDS011;36811;49.732;13.402;2022-09-09T16:04:04;7.00;;;2.88;;
49039;SDS011;36811;49.732;13.402;2022-09-09T16:06:31;6.35;;;2.13;;
49039;SDS011;36811;49.732;13.402;2022-09-09T16:08:58;4.40;;;1.40;;
49039;SDS011;36811;49.732;13.402;2022-09-09T16:11:35;10.15;;;1.90;;
49039;SDS011;36811;49.732;13.402;2022-09-09T16:14:03;3.55;;;1.92;;
49039;SDS011;36811;49.732;13.402;2022-09-09T16:16:31;4.72;;;1.58;;
49039;SDS011;36811;49.732;13.402;2022-09-09T16:18:58;2.97;;;1.33;;
49039;SDS011;36811;49.732;13.402;2022-09-09T16:23:54;5.18;;;2.00;;
49039;SDS011;36811;49.732;13.402;2022-09-09T16:26:21;4.00;;;1.88;;
49039;SDS011;36811;49.732;13.402;2022-09-09T16:28:48;5.25;;;2.00;;
49039;SDS011;36811;49.732;13.402;2022-09-09T16:31:15;5.22;;;2.28;;
49039;SDS011;36811;49.732;13.402;2022-09-09T16:33:43;3.65;;;1.80;;
49039;SDS011;36811;49.732;13.402;2022-09-09T16:36:13;4.50;;;2.03;;
49039;SDS011;36811;49.732;13.402;2022-09-09T16:38:41;8.23;;;3.15;;
49039;SDS011;36811;49.732;13.402;2022-09-09T16:41:08;6.75;;;2.30;;
49039;SDS011;36811;49.732;13.402;2022-09-09T16:43:35;11.10;;;2.45;;
49039;SDS011;36811;49.732;13.402;2022-09-09T16:46:02;4.82;;;1.67;;
49039;SDS011;36811;49.732;13.402;2022-09-09T16:48:36;6.28;;;1.90;;
49039;SDS011;36811;49.732;13.402;2022-09-09T16:51:03;3.58;;;1.63;;
49039;SDS011;36811;49.732;13.402;2022-09-09T16:53:34;5.70;;;2.10;;
49039;SDS011;36811;49.732;13.402;2022-09-09T16:56:06;6.20;;;2.42;;
49039;SDS011;36811;49.732;13.402;2022-09-09T16:58:33;6.35;;;2.00;;
49039;SDS011;36811;49.732;13.402;2022-09-09T17:00:59;6.03;;;1.30;;
49039;SDS011;36811;49.732;13.402;2022-09-09T17:03:29;4.60;;;1.65;;
49039;SDS011;36811;49.732;13.402;2022-09-09T17:05:58;5.03;;;1.70;;
49039;SDS011;36811;49.732;13.402;2022-09-09T17:08:28;4.20;;;1.98;;
49039;SDS011;36811;49.732;13.402;2022-09-09T17:10:54;7.43;;;2.13;;
49039;SDS011;36811;49.732;13.402;2022-09-09T17:13:21;3.72;;;1.50;;
49039;SDS011;36811;49.732;13.402;2022-09-09T17:15:47;7.70;;;1.98;;